Travis Air Force Base
KSUU : now visible

Airfield :











YOU CAN JOIN US ON...

 
LOGIN :

Register | Disclaimer

   EN    FR    IT 

 









Legend :    VFR   Marginal VFR   IFR   Intensive IFR   Very Intensive IFR
Visi :
Ceiling :
>= 8 km
>= 3000ft
5 to 8 km
1000 to 3000 ft
1500m to 5 km
500 to 1000 ft
800 to 1500m
200 to 500 ft
< 800m
< 200 ft
Symbols :   Thunderstorms  Fog  Heavy snow  Heavy precipitations  Wind > 20 kt






- Airport Elevation : 62 ft


KSUU - Travis Air Force Base

CURRENT METAR :
  • 080834Z AUTO 19008KT 10SM FEW007 SCT011 BKN019 OVC023 13/12 A2994 RMK AO2 RAB05E34 CIG 007V019 CIG 015 RWY03R CIG 015 RWY21R SLP145 $

EXPIRED METARs :
  • 080825Z AUTO 20009KT 10SM -RA FEW003 BKN007 BKN011 BKN018 OVC027 13/12 A2994 RMK AO2 RAB05 CIG 007V011 BKN007 V SCT SLP145 $
  • 080803Z AUTO 18008KT 10SM FEW003 OVC009 14/12 A2995 RMK AO2 CIG 008 RWY03L SLP149 $
  • 080754Z AUTO 19008KT 10SM FEW004 OVC010 13/12 A2995 RMK AO2 DZB11E18RAB24E33RAB36E54 CIG 009 RWY03L CIG 009 RWY03R CIG 009 RWY21R SLP149 $
  • 080741Z AUTO 18009KT 9SM -RA FEW003 BKN009 BKN014 OVC020 13/12 A2995 RMK AO2 DZB11E18RAB24E33RAB36 CIG 009V016 SLP149 $
  • 080733Z AUTO 17005KT 9SM FEW003 BKN009 BKN015 OVC022 13/12 A2994 RMK AO2 DZB11E18RAB24E33 CIG 009V019 SLP145 $
  • 080711Z AUTO 16007KT 7SM -DZ SCT016 BKN022 BKN030 14/12 A2995 RMK AO2 DZB11 CIG 017 RWY03L CIG 019 RWY03R CIG 019 RWY21R SLP149 $
  • 080658Z AUTO 18009KT 10SM BKN021 BKN036 14/12 A2994 RMK AO2 CIG 018 RWY03L CIG 020 RWY03R CIG 020 RWY21R SLP145 T01350121 $
  • 080638Z AUTO 17008KT 10SM BKN020 BKN025 OVC036 14/12 A2994 RMK AO2 CIG 018 RWY03L CIG 019 RWY03R CIG 019 RWY21R SLP145 $
  • 080633Z AUTO 17008KT 10SM BKN018 BKN025 OVC036 14/12 A2994 RMK AO2 CIG 018V027 SLP145 $
  • 080618Z AUTO 16007KT 10SM SCT021 BKN029 OVC036 14/12 A2993 RMK AO2 CIG 029V036 BKN V SCT CIG 019 RWY03L CIG 025 RWY03R CIG 025 RWY21R SLP142 $
  • 080558Z AUTO 16007KT 10SM SCT028 BKN036 OVC046 13/12 A2993 RMK AO2 SLP142 60000 T01340121 10137 20122 53009 $
  • 080553Z AUTO 15006KT 10SM FEW019 SCT027 BKN034 OVC046 13/12 A2993 RMK AO2 SLP142 $
  • 080543Z AUTO 15006KT 10SM SCT018 BKN028 OVC035 14/12 A2993 RMK AO2 CIG 027V037 SLP142 $

TAF AMD TAF KSUU
Valid from the 08 at 08:00 until the 09 at 09:00 UTC


080830Z 0808/0909 21012KT 9999 BKN010 OVC020 QNH2994INS
TEMPO 0808/0816 9000 -RA BKN007
BECMG 0817/0818 01012KT 9999 SCT030 QNH2997INS TX18/0822Z TN10/0812Z



MET'MAP, your aeronautical weather chart ! - Copyright ORBIFLY December 2007 - Disclaimer

ORBIFLY MET'MAP TEAM :

Programming & Development : Alexandra Zaïnal
Concept & original design : Baudouin d'Aumeries
Assistance for programming : Marc-Olivier Méhu
Technical & hardware support : Manuel Goepfert

Contact : metmap@orbifly.com




SOURCES & CREDITS :

   NOAA       Earth
Advisory